Time;durP1;ratioP1;P1;durP2;ratioP2;P2;SDS_P1;SDS_P2;PMS_P1;PMS_P2;Temp;Humidity;BMP_temperature;BMP_pressure;BME280_temperature;BME280_humidity;BME280_pressure;Samples;Min_cycle;Max_cycle;Signal;HPM_P1;HPM_P2
2023/06/05 00:00:07;;;;;;;7.45;4.20;;;19.30;99.90;;;;;;7402302;19;19943;-72
2023/06/05 00:02:33;;;;;;;7.93;4.03;;;19.30;99.90;;;;;;7403251;19;19910;-72
2023/06/05 00:04:58;;;;;;;7.20;4.18;;;19.40;99.90;;;;;;7403203;19;20366;-72
2023/06/05 00:07:24;;;;;;;9.45;5.00;;;19.30;99.70;;;;;;7403602;19;19922;-71
2023/06/05 00:09:50;;;;;;;6.93;4.53;;;19.40;99.70;;;;;;7402582;19;20008;-71
2023/06/05 00:12:16;;;;;;;9.57;4.55;;;19.30;99.80;;;;;;7398627;19;19919;-72
2023/06/05 00:14:43;;;;;;;7.03;4.20;;;19.20;99.90;;;;;;7403254;19;20333;-71
2023/06/05 00:17:09;;;;;;;8.10;4.82;;;19.20;99.90;;;;;;7399804;19;19911;-71
2023/06/05 00:19:35;;;;;;;8.70;4.68;;;19.10;99.70;;;;;;7403792;19;19932;-71
2023/06/05 00:22:00;;;;;;;8.80;4.07;;;19.20;99.80;;;;;;7401303;19;19919;-71
2023/06/05 00:24:26;;;;;;;8.48;4.32;;;19.20;99.40;;;;;;7400547;19;20284;-71
2023/06/05 00:26:53;;;;;;;9.32;4.75;;;19.10;99.50;;;;;;7401337;19;19959;-71
2023/06/05 00:29:19;;;;;;;8.48;4.93;;;19.20;99.60;;;;;;7399479;19;19914;-71
2023/06/05 00:31:46;;;;;;;7.60;4.95;;;19.20;99.70;;;;;;7401676;19;20236;-71
2023/06/05 00:34:13;;;;;;;10.25;5.25;;;19.10;99.60;;;;;;7400467;19;19929;-71
2023/06/05 00:36:40;;;;;;;7.32;4.80;;;19.10;99.50;;;;;;7398252;19;20331;-72
2023/06/05 00:39:06;;;;;;;;;;;19.10;99.60;;;;;;7402124;19;19930;-72
2023/06/05 00:41:32;;;;;;;8.65;4.45;;;19.20;99.50;;;;;;7401401;19;19919;-72
2023/06/05 00:43:58;;;;;;;10.55;4.72;;;19.20;99.50;;;;;;7400716;19;19925;-72
2023/06/05 00:46:25;;;;;;;10.77;5.22;;;19.10;99.50;;;;;;7397241;19;19926;-71
2023/06/05 00:48:51;;;;;;;9.45;4.75;;;19.20;99.40;;;;;;7402888;19;19947;-71
2023/06/05 00:51:17;;;;;;;7.40;4.88;;;19.20;99.20;;;;;;7397430;19;20339;-72
2023/06/05 00:53:45;;;;;;;7.88;4.75;;;19.20;99.30;;;;;;7401813;19;19935;-72
2023/06/05 00:56:11;;;;;;;9.85;5.22;;;19.10;99.40;;;;;;7397396;19;19977;-72
2023/06/05 00:58:37;;;;;;;8.68;5.07;;;19.20;99.40;;;;;;7398362;19;20764;-72
2023/06/05 01:01:05;;;;;;;8.18;4.80;;;19.10;99.30;;;;;;7397861;19;20322;-72
2023/06/05 01:03:33;;;;;;;8.85;4.47;;;19.00;99.20;;;;;;7402556;19;19918;-71
2023/06/05 01:06:03;;;;;;;7.28;4.82;;;19.00;99.40;;;;;;7400225;19;19926;-72
2023/06/05 01:08:31;;;;;;;8.10;4.60;;;18.90;99.80;;;;;;7395328;19;20378;-72
2023/06/05 01:11:01;;;;;;;7.35;4.57;;;18.70;99.90;;;;;;7400573;19;19918;-72
2023/06/05 01:13:31;;;;;;;7.30;4.38;;;18.70;99.90;;;;;;7402190;19;19919;-73
2023/06/05 01:15:58;;;;;;;7.80;4.47;;;18.60;99.90;;;;;;7398955;19;19935;-72
2023/06/05 01:18:24;;;;;;;6.70;4.22;;;18.60;99.90;;;;;;7395102;19;19918;-71
2023/06/05 01:20:50;;;;;;;8.27;4.65;;;18.70;99.90;;;;;;7395809;19;19923;-71
2023/06/05 01:23:16;;;;;;;6.70;4.50;;;18.70;99.90;;;;;;7398837;19;20463;-72
2023/06/05 01:25:42;;;;;;;10.05;5.03;;;18.70;99.90;;;;;;7400626;19;19910;-71
2023/06/05 01:28:21;;;;;;;11.02;4.50;;;18.70;99.90;;;;;;7398714;19;19926;-71
2023/06/05 01:31:03;;;;;;;12.40;5.30;;;18.70;99.90;;;;;;7398232;19;19914;-72
2023/06/05 01:33:49;;;;;;;9.93;4.95;;;18.80;99.90;;;;;;7400826;19;19923;-71
2023/06/05 01:36:16;;;;;;;8.52;4.97;;;18.80;99.90;;;;;;7398172;19;19925;-71
2023/06/05 01:38:45;;;;;;;6.90;4.63;;;18.80;99.90;;;;;;7398011;19;19918;-71
2023/06/05 01:41:11;;;;;;;7.93;4.82;;;18.70;99.90;;;;;;7398253;19;19922;-72
2023/06/05 01:43:37;;;;;;;8.48;4.85;;;18.70;99.90;;;;;;7402650;19;19961;-72
2023/06/05 01:46:06;;;;;;;8.55;5.07;;;18.70;99.80;;;;;;7396088;19;19926;-73
2023/06/05 01:48:33;;;;;;;7.35;4.78;;;18.80;99.70;;;;;;7396161;19;19927;-72
2023/06/05 01:51:02;;;;;;;8.57;5.22;;;18.70;99.60;;;;;;7394100;19;19940;-71
2023/06/05 01:53:28;;;;;;;7.30;4.65;;;18.70;99.40;;;;;;7397100;19;19954;-72
2023/06/05 01:55:57;;;;;;;8.65;5.22;;;18.80;99.30;;;;;;7393709;19;20453;-72
2023/06/05 01:58:24;;;;;;;8.15;4.93;;;18.80;98.90;;;;;;7398896;19;19937;-72
2023/06/05 02:00:52;;;;;;;7.95;5.05;;;18.70;98.90;;;;;;7396720;19;19915;-71
2023/06/05 02:03:18;;;;;;;10.18;4.93;;;18.70;98.90;;;;;;7398641;19;20338;-71
2023/06/05 02:05:44;;;;;;;7.47;4.80;;;18.80;98.80;;;;;;7393601;19;19911;-71
2023/06/05 02:08:12;;;;;;;9.10;5.25;;;18.70;98.90;;;;;;7396866;19;20389;-71
2023/06/05 02:10:42;;;;;;;9.10;4.90;;;18.70;98.80;;;;;;7397387;19;19922;-71
2023/06/05 02:13:08;;;;;;;8.73;4.90;;;18.70;98.80;;;;;;7395110;19;20549;-72
2023/06/05 02:15:35;;;;;;;8.65;4.70;;;18.70;98.70;;;;;;7397112;19;19910;-71
2023/06/05 02:18:02;;;;;;;;;;;18.70;98.70;;;;;;7400205;19;19951;-71
2023/06/05 02:20:28;;;;;;;8.25;5.35;;;18.70;98.70;;;;;;7397627;19;20390;-72
2023/06/05 02:22:54;;;;;;;8.68;4.45;;;18.70;98.90;;;;;;7399944;19;19921;-72
2023/06/05 02:25:21;;;;;;;8.23;4.55;;;18.70;98.80;;;;;;7398631;19;20327;-72
2023/06/05 02:27:47;;;;;;;9.43;5.63;;;18.70;98.90;;;;;;7397629;19;19933;-72
2023/06/05 02:30:14;;;;;;;9.60;5.45;;;18.70;98.90;;;;;;7402009;19;19914;-71
2023/06/05 02:32:46;;;;;;;9.50;5.57;;;18.60;98.90;;;;;;7403082;19;19914;-72
2023/06/05 02:35:13;;;;;;;9.38;5.28;;;18.70;99.00;;;;;;7399830;19;19915;-72
2023/06/05 02:37:43;;;;;;;9.07;5.25;;;18.70;98.90;;;;;;7406716;19;19982;-72
2023/06/05 02:40:13;;;;;;;8.63;5.50;;;18.70;99.00;;;;;;7405320;19;19918;-71
2023/06/05 02:42:40;;;;;;;8.75;5.63;;;18.70;99.10;;;;;;7405854;19;19929;-72
2023/06/05 02:45:08;;;;;;;9.55;5.00;;;18.70;99.20;;;;;;7402458;19;19915;-71
2023/06/05 02:47:34;;;;;;;8.80;4.82;;;18.70;99.10;;;;;;7400137;19;19923;-72
2023/06/05 02:50:01;;;;;;;10.60;5.38;;;18.60;99.10;;;;;;7405249;19;19952;-71
2023/06/05 02:52:32;;;;;;;9.50;5.32;;;18.50;99.30;;;;;;7401567;19;19923;-72
2023/06/05 02:54:57;;;;;;;9.05;6.50;;;18.50;99.50;;;;;;7400416;19;20358;-72
2023/06/05 02:57:26;;;;;;;10.38;5.55;;;18.50;99.70;;;;;;7402825;19;19914;-71
2023/06/05 02:59:52;;;;;;;9.30;5.57;;;18.50;99.90;;;;;;7402535;19;19914;-72
2023/06/05 03:02:22;;;;;;;9.48;5.53;;;18.60;99.90;;;;;;7400743;19;20291;-72
2023/06/05 03:04:53;;;;;;;10.85;6.13;;;18.60;99.90;;;;;;7401747;19;19910;-72
2023/06/05 03:07:19;;;;;;;10.10;5.70;;;18.60;99.80;;;;;;7400839;19;19934;-71
2023/06/05 03:09:45;;;;;;;11.05;6.10;;;18.60;99.90;;;;;;7405412;19;19926;-72
2023/06/05 03:12:11;;;;;;;8.40;5.63;;;18.60;99.90;;;;;;7402308;19;19927;-71
2023/06/05 03:14:37;;;;;;;9.25;5.82;;;18.50;99.90;;;;;;7402605;19;20288;-71
2023/06/05 03:17:03;;;;;;;10.15;5.65;;;18.60;99.90;;;;;;7401077;19;19929;-71
2023/06/05 03:19:29;;;;;;;;;;;18.50;99.90;;;;;;7403240;19;19990;-72
2023/06/05 03:21:55;;;;;;;9.77;5.50;;;18.50;99.90;;;;;;7404415;19;19939;-71
2023/06/05 03:24:24;;;;;;;10.23;5.80;;;18.50;99.90;;;;;;7404520;19;19914;-72
2023/06/05 03:26:50;;;;;;;10.48;6.47;;;18.60;99.90;;;;;;7370933;19;19922;-72
2023/06/05 03:29:16;;;;;;;10.68;7.05;;;18.40;99.90;;;;;;7403238;19;19926;-71
2023/06/05 03:31:42;;;;;;;8.63;5.50;;;18.40;99.90;;;;;;7401870;19;19930;-72
2023/06/05 03:34:08;;;;;;;9.55;6.18;;;18.40;99.90;;;;;;7397570;19;19918;-71
2023/06/05 03:36:34;;;;;;;10.98;5.75;;;18.40;99.90;;;;;;7401633;19;19932;-72
2023/06/05 03:39:01;;;;;;;12.88;6.07;;;18.40;99.90;;;;;;7401034;19;20273;-71
2023/06/05 03:41:29;;;;;;;10.60;6.13;;;18.40;99.90;;;;;;7367285;19;20268;-71
2023/06/05 03:43:56;;;;;;;10.77;6.53;;;18.40;99.90;;;;;;7405035;19;19922;-72
2023/06/05 03:46:23;;;;;;;13.20;7.68;;;18.50;99.90;;;;;;7400830;19;19949;-71
2023/06/05 03:48:53;;;;;;;11.60;7.45;;;18.50;99.90;;;;;;7401867;19;19925;-72
2023/06/05 03:51:19;;;;;;;9.57;6.95;;;18.50;99.90;;;;;;7401443;19;19942;-72
2023/06/05 03:53:45;;;;;;;10.88;6.85;;;18.50;99.90;;;;;;7403275;19;19918;-72
2023/06/05 03:56:15;;;;;;;;;;;18.50;99.90;;;;;;7402556;19;19915;-72
2023/06/05 03:58:44;;;;;;;10.50;6.00;;;18.50;99.90;;;;;;7401370;19;20673;-71
2023/06/05 04:01:10;;;;;;;10.95;6.50;;;18.50;99.90;;;;;;7398700;19;20272;-70
2023/06/05 04:03:37;;;;;;;10.00;6.68;;;18.50;99.90;;;;;;7403781;19;19919;-71
2023/06/05 04:06:04;;;;;;;10.98;6.45;;;18.40;99.90;;;;;;7398423;19;19925;-71
2023/06/05 04:08:30;;;;;;;10.95;6.95;;;18.40;99.90;;;;;;7400097;19;19918;-72
2023/06/05 04:10:56;;;;;;;12.48;6.45;;;18.40;99.90;;;;;;7403403;19;20259;-73
2023/06/05 04:13:22;;;;;;;10.70;6.30;;;18.40;99.90;;;;;;7395374;19;19963;-72
2023/06/05 04:15:48;;;;;;;13.95;6.22;;;18.40;99.90;;;;;;7398750;19;19922;-71
2023/06/05 04:18:14;;;;;;;;;;;18.40;99.90;;;;;;7401157;19;20283;-72
2023/06/05 04:20:40;;;;;;;9.23;5.68;;;18.40;99.90;;;;;;7398698;19;19922;-72
2023/06/05 04:23:06;;;;;;;9.73;6.15;;;18.40;99.90;;;;;;7398398;19;19918;-71
2023/06/05 04:25:32;;;;;;;12.23;6.25;;;18.40;99.90;;;;;;7395618;19;20379;-71
2023/06/05 04:27:58;;;;;;;12.50;7.47;;;18.40;99.90;;;;;;7401615;19;19935;-73
2023/06/05 04:30:24;;;;;;;11.60;7.50;;;18.50;99.90;;;;;;7395428;19;19938;-72
2023/06/05 04:32:54;;;;;;;15.40;7.30;;;18.40;99.90;;;;;;7401276;19;19914;-72
2023/06/05 04:35:21;;;;;;;11.13;7.40;;;18.40;99.90;;;;;;7396457;19;19958;-72
2023/06/05 04:37:46;;;;;;;;;;;18.50;99.90;;;;;;7400039;19;19938;-71
2023/06/05 04:40:12;;;;;;;8.75;6.07;;;18.50;99.90;;;;;;7401354;19;19918;-71
2023/06/05 04:42:39;;;;;;;13.15;7.05;;;18.50;99.90;;;;;;7399842;19;19918;-72
2023/06/05 04:45:07;;;;;;;11.75;7.28;;;18.60;99.90;;;;;;7395734;19;19919;-72
2023/06/05 04:47:34;;;;;;;11.02;6.70;;;18.60;99.90;;;;;;7394378;19;19926;-71
2023/06/05 04:50:03;;;;;;;12.13;6.45;;;18.60;99.90;;;;;;7403477;19;19922;-71
2023/06/05 04:52:30;;;;;;;9.55;5.97;;;18.60;99.90;;;;;;7398236;19;19946;-72
2023/06/05 04:54:57;;;;;;;11.57;6.38;;;18.60;99.90;;;;;;7398749;19;20263;-71
2023/06/05 04:57:25;;;;;;;9.80;5.93;;;18.70;99.90;;;;;;7397251;19;19982;-72
2023/06/05 04:59:52;;;;;;;10.43;6.63;;;18.70;99.90;;;;;;7400990;19;19922;-72
2023/06/05 05:02:18;;;;;;;11.05;6.57;;;18.80;99.90;;;;;;7398342;19;19921;-71
2023/06/05 05:04:43;;;;;;;10.48;6.28;;;18.70;99.90;;;;;;7397291;19;19914;-72
2023/06/05 05:07:14;;;;;;;10.98;6.63;;;18.80;99.90;;;;;;7398528;19;19992;-72
2023/06/05 05:09:41;;;;;;;10.40;6.22;;;18.90;99.90;;;;;;7400710;19;20654;-72
2023/06/05 05:12:07;;;;;;;10.15;6.78;;;18.90;99.90;;;;;;7397107;19;20247;-71
2023/06/05 05:14:33;;;;;;;13.68;6.55;;;18.90;99.90;;;;;;7400854;19;19928;-72
2023/06/05 05:17:01;;;;;;;10.00;6.95;;;19.00;99.90;;;;;;7400661;19;19982;-72
2023/06/05 05:19:27;;;;;;;11.70;7.28;;;19.00;99.90;;;;;;7400109;19;19938;-71
2023/06/05 05:21:53;;;;;;;11.13;6.85;;;19.00;99.90;;;;;;7395071;19;20259;-71
2023/06/05 05:24:18;;;;;;;13.52;8.73;;;19.00;99.90;;;;;;7393834;19;20616;-72
2023/06/05 05:26:45;;;;;;;11.23;7.80;;;19.00;99.90;;;;;;7401193;19;19930;-71
2023/06/05 05:29:10;;;;;;;11.25;6.97;;;19.00;99.90;;;;;;7395839;19;20421;-71
2023/06/05 05:31:36;;;;;;;12.32;7.95;;;19.10;99.90;;;;;;7396646;19;19918;-72
2023/06/05 05:34:02;;;;;;;10.98;7.20;;;19.10;99.90;;;;;;7397996;19;19991;-71
2023/06/05 05:36:28;;;;;;;11.20;7.30;;;19.20;99.90;;;;;;7400836;19;20260;-71
2023/06/05 05:38:54;;;;;;;11.35;7.53;;;19.20;99.90;;;;;;7396863;19;19939;-72
2023/06/05 05:41:20;;;;;;;11.57;8.05;;;19.30;99.90;;;;;;7398143;19;19919;-71
2023/06/05 05:43:47;;;;;;;13.05;8.18;;;19.40;99.70;;;;;;7401464;19;20375;-74
2023/06/05 05:46:14;;;;;;;13.10;8.77;;;19.50;99.20;;;;;;7397109;19;20338;-72
2023/06/05 05:48:40;;;;;;;13.75;8.43;;;19.60;98.70;;;;;;7397499;19;20340;-73
2023/06/05 05:51:07;;;;;;;14.68;9.68;;;19.60;98.60;;;;;;7395177;19;19940;-72
2023/06/05 05:53:33;;;;;;;15.65;9.68;;;19.60;98.30;;;;;;7401056;19;19907;-71
2023/06/05 05:56:00;;;;;;;14.40;9.40;;;19.70;98.30;;;;;;7344919;19;19921;-73
2023/06/05 05:58:26;;;;;;;16.35;10.52;;;19.80;98.10;;;;;;7395804;19;19930;-72
2023/06/05 06:00:52;;;;;;;15.30;10.07;;;19.70;98.20;;;;;;7398653;19;20560;-73
2023/06/05 06:03:19;;;;;;;17.70;10.45;;;19.70;98.10;;;;;;7394784;19;19918;-72
2023/06/05 06:05:45;;;;;;;15.98;10.82;;;19.70;97.70;;;;;;7398089;19;20367;-73
2023/06/05 06:08:12;;;;;;;16.33;10.50;;;19.80;97.90;;;;;;7396124;19;20379;-72
2023/06/05 06:10:38;;;;;;;16.73;10.38;;;19.80;97.70;;;;;;7399200;19;20008;-72
2023/06/05 06:13:05;;;;;;;17.15;11.68;;;19.80;97.60;;;;;;7397098;19;19921;-72
2023/06/05 06:15:32;;;;;;;17.38;10.70;;;19.90;97.30;;;;;;7398988;19;19979;-72
2023/06/05 06:17:59;;;;;;;;;;;20.00;97.10;;;;;;7401536;19;20328;-71
2023/06/05 06:20:27;;;;;;;16.55;11.07;;;20.10;96.80;;;;;;7398778;19;19961;-72
2023/06/05 06:22:53;;;;;;;19.40;10.90;;;20.20;96.30;;;;;;7398107;19;19915;-72
2023/06/05 06:25:21;;;;;;;18.73;11.40;;;20.30;96.10;;;;;;7399490;19;19923;-73
2023/06/05 06:27:49;;;;;;;18.33;10.82;;;20.40;95.60;;;;;;7394888;19;19914;-72
2023/06/05 06:30:15;;;;;;;15.75;10.48;;;20.40;95.20;;;;;;7394729;19;19915;-71
2023/06/05 06:32:41;;;;;;;13.90;10.02;;;20.50;95.00;;;;;;7397939;19;19923;-73
2023/06/05 06:35:07;;;;;;;18.55;10.30;;;20.50;94.70;;;;;;7396060;19;19923;-74
2023/06/05 06:37:33;;;;;;;17.88;11.43;;;20.50;94.30;;;;;;7397605;19;20390;-74
2023/06/05 06:39:59;;;;;;;17.10;10.20;;;20.60;94.20;;;;;;7397864;19;20591;-73
2023/06/05 06:42:27;;;;;;;14.48;9.27;;;20.70;94.20;;;;;;7394161;19;19914;-71
2023/06/05 06:44:55;;;;;;;15.98;10.65;;;20.80;93.80;;;;;;7396821;19;19923;-72
2023/06/05 06:47:22;;;;;;;15.10;10.10;;;20.80;93.40;;;;;;7395750;19;20354;-70
2023/06/05 06:49:48;;;;;;;15.73;10.68;;;20.80;93.30;;;;;;7397318;19;20300;-71
2023/06/05 06:52:16;;;;;;;14.43;10.07;;;20.90;93.40;;;;;;7395784;19;19938;-73
2023/06/05 06:54:42;;;;;;;16.15;10.88;;;21.00;93.10;;;;;;7398111;19;19925;-71
2023/06/05 06:57:08;;;;;;;16.08;10.30;;;20.80;92.80;;;;;;7393496;19;20903;-72
2023/06/05 06:59:33;;;;;;;15.98;10.40;;;20.80;92.90;;;;;;7395416;19;19914;-72
2023/06/05 07:02:11;;;;;;;14.45;8.98;;;20.80;93.00;;;;;;7391816;19;19957;-72
2023/06/05 07:04:38;;;;;;;15.48;9.85;;;20.80;93.10;;;;;;7393288;19;19922;-71
2023/06/05 07:07:04;;;;;;;15.95;10.38;;;20.80;92.90;;;;;;7392301;19;20412;-71
2023/06/05 07:09:30;;;;;;;16.73;10.88;;;20.90;92.80;;;;;;7396403;19;20362;-75
2023/06/05 07:11:56;;;;;;;18.27;12.23;;;21.10;92.60;;;;;;7397374;19;19925;-71
2023/06/05 07:14:23;;;;;;;19.42;12.70;;;21.20;92.30;;;;;;7393401;19;19925;-74
2023/06/05 07:16:51;;;;;;;17.90;11.27;;;21.20;92.10;;;;;;7399749;19;19952;-72
2023/06/05 07:19:17;;;;;;;17.70;10.40;;;21.40;91.90;;;;;;7402879;19;19918;-71
2023/06/05 07:21:43;;;;;;;19.02;12.23;;;21.50;91.40;;;;;;7398857;19;19950;-72
2023/06/05 07:24:08;;;;;;;18.60;10.50;;;21.50;91.20;;;;;;7401720;19;19934;-74
2023/06/05 07:26:34;;;;;;;17.45;11.57;;;21.60;91.00;;;;;;7400783;19;19970;-72
2023/06/05 07:29:00;;;;;;;15.93;10.63;;;21.60;90.70;;;;;;7403358;19;20273;-72
2023/06/05 07:31:26;;;;;;;17.05;10.80;;;21.60;90.70;;;;;;7404865;19;19923;-72
2023/06/05 07:33:52;;;;;;;14.63;10.55;;;21.70;90.60;;;;;;7398769;19;20328;-72
2023/06/05 07:36:18;;;;;;;22.30;10.50;;;21.90;90.40;;;;;;7402034;19;19986;-75
2023/06/05 07:38:45;;;;;;;16.58;10.65;;;21.90;90.00;;;;;;7401373;19;19922;-75
2023/06/05 07:41:11;;;;;;;18.13;10.90;;;21.90;90.00;;;;;;7403742;19;20327;-73
2023/06/05 07:43:41;;;;;;;20.77;12.73;;;22.10;89.80;;;;;;7401386;19;19919;-73
2023/06/05 07:46:08;;;;;;;18.67;12.27;;;22.00;89.00;;;;;;7398586;19;19993;-72
2023/06/05 07:48:35;;;;;;;17.38;12.02;;;22.00;89.30;;;;;;7401736;19;19923;-74
2023/06/05 07:51:01;;;;;;;;;;;22.00;89.20;;;;;;7403363;19;20264;-73
2023/06/05 07:53:26;;;;;;;16.70;11.65;;;22.10;88.60;;;;;;7398730;19;19935;-72
2023/06/05 07:55:52;;;;;;;18.05;11.90;;;21.90;88.70;;;;;;7402858;19;20019;-73
2023/06/05 07:58:19;;;;;;;18.13;12.40;;;22.00;89.00;;;;;;7399757;19;19925;-73
2023/06/05 08:00:47;;;;;;;21.05;13.00;;;22.10;88.40;;;;;;7403496;19;19919;-72
2023/06/05 08:03:20;;;;;;;18.45;12.70;;;22.10;88.50;;;;;;7401616;19;20406;-73
2023/06/05 08:05:47;;;;;;;21.25;12.07;;;22.00;88.60;;;;;;7400359;19;19924;-72
2023/06/05 08:08:13;;;;;;;18.27;12.35;;;21.90;89.00;;;;;;7397969;19;19918;-73
2023/06/05 08:10:40;;;;;;;20.42;11.23;;;22.10;88.20;;;;;;7404160;19;19930;-73
2023/06/05 08:13:07;;;;;;;19.98;11.75;;;22.30;87.80;;;;;;7399147;19;19938;-73
2023/06/05 08:15:33;;;;;;;16.10;11.05;;;22.20;86.90;;;;;;7401766;19;19970;-72
2023/06/05 08:17:58;;;;;;;19.38;12.35;;;22.30;86.70;;;;;;7370459;19;19922;-74
2023/06/05 08:20:24;;;;;;;18.23;11.90;;;22.30;86.90;;;;;;7404297;19;20243;-72
2023/06/05 08:22:50;;;;;;;18.23;11.02;;;22.40;86.10;;;;;;7405339;19;20428;-73
2023/06/05 08:25:16;;;;;;;15.30;11.02;;;22.50;85.60;;;;;;7402114;19;19926;-72
2023/06/05 08:27:41;;;;;;;17.00;11.13;;;22.50;85.10;;;;;;7401013;19;19930;-72
2023/06/05 08:30:08;;;;;;;14.65;9.90;;;22.60;84.30;;;;;;7398918;19;19919;-73
2023/06/05 08:32:34;;;;;;;13.35;9.10;;;22.70;83.90;;;;;;7402981;19;19931;-72
2023/06/05 08:34:59;;;;;;;16.13;10.85;;;22.80;83.40;;;;;;7400856;19;19922;-73
2023/06/05 08:37:28;;;;;;;19.10;11.48;;;22.90;83.00;;;;;;7399115;19;19925;-72
2023/06/05 08:39:58;;;;;;;18.13;11.65;;;22.90;82.80;;;;;;7404336;19;20783;-74
2023/06/05 08:42:28;;;;;;;17.95;13.07;;;23.00;83.60;;;;;;7404280;19;19937;-73
2023/06/05 08:44:55;;;;;;;18.25;12.13;;;23.20;83.30;;;;;;7400549;19;19960;-73
2023/06/05 08:47:24;;;;;;;17.75;12.73;;;23.10;83.40;;;;;;7398811;19;20260;-73
2023/06/05 08:49:53;;;;;;;18.40;13.05;;;23.10;83.60;;;;;;7403569;19;19927;-74
2023/06/05 08:52:22;;;;;;;17.60;12.55;;;23.20;83.70;;;;;;7399292;19;19986;-74
2023/06/05 08:54:47;;;;;;;17.17;11.23;;;23.20;83.60;;;;;;7400767;19;19918;-73
2023/06/05 08:57:13;;;;;;;20.60;12.85;;;23.30;83.10;;;;;;7398899;19;19919;-74
2023/06/05 08:59:41;;;;;;;19.42;13.02;;;23.40;83.20;;;;;;7401709;19;20319;-74
2023/06/05 09:02:07;;;;;;;19.30;12.70;;;23.50;82.20;;;;;;7393439;19;19919;-74
2023/06/05 09:04:33;;;;;;;17.23;11.48;;;23.60;81.70;;;;;;7393717;19;19926;-74
2023/06/05 09:07:00;;;;;;;19.27;11.38;;;23.80;81.60;;;;;;7400554;19;19933;-74
2023/06/05 09:09:26;;;;;;;17.33;11.05;;;23.80;81.10;;;;;;7396881;19;19915;-72
2023/06/05 09:12:05;;;;;;;12.13;8.55;;;23.70;81.40;;;;;;7387737;19;19914;-74
2023/06/05 09:14:32;;;;;;;17.88;10.70;;;24.10;81.50;;;;;;7380570;19;19910;-74
2023/06/05 09:17:03;;;;;;;17.50;10.82;;;24.30;79.40;;;;;;7380473;19;19921;-68
2023/06/05 09:19:40;;;;;;;15.85;9.57;;;24.40;79.40;;;;;;7391768;19;20281;-71
2023/06/05 09:22:09;;;;;;;15.80;9.88;;;24.70;78.70;;;;;;7397049;19;19911;-70
2023/06/05 09:24:36;;;;;;;16.05;10.88;;;25.00;77.80;;;;;;7392056;19;21739;-71
2023/06/05 09:27:08;;;;;;;13.15;10.15;;;24.80;77.20;;;;;;7393434;19;20566;-70
2023/06/05 09:29:43;;;;;;;15.85;11.73;;;24.80;76.50;;;;;;7389272;19;20692;-71
2023/06/05 09:32:16;;;;;;;15.88;10.65;;;25.00;76.30;;;;;;7385488;19;19914;-72
2023/06/05 09:34:43;;;;;;;15.10;9.88;;;25.00;76.20;;;;;;7389285;19;19929;-71
2023/06/05 09:37:11;;;;;;;14.90;9.48;;;25.20;75.30;;;;;;7398355;19;20313;-73
2023/06/05 09:39:44;;;;;;;15.10;10.85;;;25.40;73.90;;;;;;7392071;19;19964;-70
2023/06/05 09:42:10;;;;;;;14.23;9.10;;;25.10;74.10;;;;;;7390188;19;20373;-71
2023/06/05 09:44:36;;;;;;;14.40;9.80;;;24.60;75.30;;;;;;7388114;19;19922;-71
2023/06/05 09:47:05;;;;;;;13.70;8.95;;;24.60;76.00;;;;;;7391749;19;19922;-70
2023/06/05 09:49:31;;;;;;;13.40;8.80;;;24.80;75.40;;;;;;7394611;19;19951;-72
2023/06/05 09:51:59;;;;;;;13.63;8.73;;;24.90;74.70;;;;;;7394113;19;20375;-70
2023/06/05 09:54:29;;;;;;;12.95;9.48;;;25.00;75.40;;;;;;7389827;19;20316;-73
2023/06/05 09:57:01;;;;;;;13.85;9.18;;;25.40;74.70;;;;;;7389775;19;19918;-77
2023/06/05 09:59:29;;;;;;;13.60;8.57;;;25.20;73.60;;;;;;7396202;19;19934;-77
2023/06/05 10:01:57;;;;;;;12.43;8.68;;;24.90;75.30;;;;;;7398059;19;19950;-79
2023/06/05 10:04:25;;;;;;;14.30;8.50;;;25.20;73.60;;;;;;7399093;19;19934;-78
2023/06/05 10:06:54;;;;;;;12.75;8.07;;;24.90;75.10;;;;;;7403522;19;19930;-78
2023/06/05 10:09:21;;;;;;;12.20;7.80;;;24.90;75.10;;;;;;7402333;19;19911;-77
2023/06/05 10:11:50;;;;;;;11.35;8.27;;;25.00;75.20;;;;;;7402093;19;20417;-77
2023/06/05 10:14:17;;;;;;;11.15;7.13;;;25.30;75.00;;;;;;7387619;19;19972;-73
2023/06/05 10:16:44;;;;;;;12.02;7.65;;;25.60;73.80;;;;;;7391097;19;19921;-73
2023/06/05 10:19:12;;;;;;;12.18;7.50;;;25.60;73.10;;;;;;7396722;19;19937;-74
2023/06/05 10:21:38;;;;;;;11.07;7.53;;;25.30;72.90;;;;;;7392986;19;19915;-73
2023/06/05 10:24:13;;;;;;;11.73;8.05;;;25.20;73.80;;;;;;7400154;19;20530;-74
2023/06/05 10:27:03;;;;;;;11.85;7.15;;;25.40;74.00;;;;;;7398083;19;19990;-74
2023/06/05 10:29:54;;;;;;;12.13;7.55;;;25.50;73.30;;;;;;7386167;19;20657;-73
2023/06/05 10:32:59;;;;;;;10.18;6.85;;;25.50;72.20;;;;;;7396581;19;19950;-75
2023/06/05 10:35:42;;;;;;;11.93;8.40;;;25.80;71.40;;;;;;7394962;19;19989;-75
2023/06/05 10:38:20;;;;;;;11.48;7.20;;;25.80;71.50;;;;;;7397758;19;19939;-74
2023/06/05 10:40:57;;;;;;;9.25;6.00;;;25.90;70.50;;;;;;7398079;19;20259;-74
2023/06/05 10:43:27;;;;;;;10.65;8.50;;;25.80;71.10;;;;;;7396028;19;19943;-74
2023/06/05 10:45:54;;;;;;;10.75;6.28;;;26.00;70.30;;;;;;7398181;19;20245;-74
2023/06/05 10:48:20;;;;;;;10.38;6.22;;;25.80;70.10;;;;;;7396879;19;19926;-74
2023/06/05 10:50:46;;;;;;;10.05;6.32;;;26.00;70.50;;;;;;7399660;19;19918;-74
2023/06/05 10:53:49;;;;;;;11.50;6.78;;;26.20;69.70;;;;;;7402035;19;20335;-75
2023/06/05 10:56:59;;;;;;;11.95;7.55;;;26.30;69.70;;;;;;7403672;19;20228;-75
2023/06/05 10:59:26;;;;;;;8.38;6.13;;;26.50;68.90;;;;;;7402365;19;19970;-74
2023/06/05 11:02:16;;;;;;;8.82;6.53;;;26.40;67.90;;;;;;7406446;19;19926;-74
2023/06/05 11:04:47;;;;;;;9.00;5.80;;;26.50;67.80;;;;;;7402693;19;20457;-73
2023/06/05 11:07:21;;;;;;;8.52;5.95;;;26.30;67.20;;;;;;7399150;19;20442;-74
2023/06/05 11:10:05;;;;;;;10.00;5.55;;;26.20;68.40;;;;;;7373424;19;20365;-73
2023/06/05 11:12:51;;;;;;;8.27;5.45;;;26.60;67.80;;;;;;7404127;19;19923;-73
2023/06/05 11:15:23;;;;;;;8.75;4.63;;;27.00;65.80;;;;;;7400183;19;20669;-74
2023/06/05 11:17:48;;;;;;;8.10;5.03;;;26.90;65.80;;;;;;7403184;19;19919;-75
2023/06/05 11:20:23;;;;;;;8.27;5.82;;;26.80;66.40;;;;;;7404797;19;20383;-74
2023/06/05 11:22:52;;;;;;;8.32;5.55;;;27.20;65.80;;;;;;7407666;19;19943;-74
2023/06/05 11:25:18;;;;;;;10.80;5.47;;;26.50;65.80;;;;;;7405165;19;19918;-74
2023/06/05 11:27:45;;;;;;;6.75;5.18;;;25.80;66.30;;;;;;7405301;19;19910;-75
2023/06/05 11:30:15;;;;;;;6.70;4.85;;;26.20;66.20;;;;;;7404302;19;19942;-74
2023/06/05 11:32:41;;;;;;;9.45;5.60;;;26.10;66.70;;;;;;7403543;19;19911;-74
2023/06/05 11:35:08;;;;;;;8.68;5.97;;;26.20;67.60;;;;;;7402280;19;19918;-74
2023/06/05 11:37:34;;;;;;;8.20;5.57;;;26.90;66.10;;;;;;7405311;19;19982;-73
2023/06/05 11:40:08;;;;;;;9.32;5.55;;;26.60;66.80;;;;;;7404834;19;19947;-74
2023/06/05 11:42:34;;;;;;;12.43;6.90;;;26.90;66.10;;;;;;7403259;19;19951;-74
2023/06/05 11:45:00;;;;;;;;;;;27.50;64.80;;;;;;7405537;19;19922;-74
2023/06/05 11:47:30;;;;;;;9.38;5.57;;;27.60;63.60;;;;;;7403234;19;19929;-73
2023/06/05 11:50:17;;;;;;;6.82;4.55;;;27.00;63.90;;;;;;7405450;19;19923;-74
2023/06/05 11:52:43;;;;;;;10.02;6.25;;;26.90;64.10;;;;;;7403347;19;19978;-74
2023/06/05 11:55:29;;;;;;;7.25;5.55;;;26.90;64.50;;;;;;7399786;19;19918;-72
2023/06/05 11:57:55;;;;;;;8.07;4.78;;;27.20;64.00;;;;;;7404251;19;20012;-72
2023/06/05 12:00:26;;;;;;;10.07;4.88;;;26.80;64.60;;;;;;7403418;19;19918;-73
2023/06/05 12:02:52;;;;;;;7.50;4.70;;;26.60;64.40;;;;;;7402350;19;19991;-74
2023/06/05 12:05:18;;;;;;;6.90;4.57;;;26.70;64.20;;;;;;7399970;19;19915;-74
2023/06/05 12:07:44;;;;;;;8.60;4.78;;;27.00;65.00;;;;;;7401046;19;20582;-74
2023/06/05 12:10:10;;;;;;;9.60;5.57;;;26.90;65.00;;;;;;7403148;19;19919;-74
2023/06/05 12:12:52;;;;;;;6.72;4.32;;;26.10;68.30;;;;;;7405192;19;19934;-75
2023/06/05 12:15:20;;;;;;;6.55;4.95;;;26.10;68.80;;;;;;7403521;19;19915;-74
2023/06/05 12:17:53;;;;;;;9.30;4.97;;;26.10;68.50;;;;;;7404293;19;20365;-75
2023/06/05 12:20:20;;;;;;;6.55;4.53;;;26.80;68.00;;;;;;7401199;19;19915;-76
2023/06/05 12:22:46;;;;;;;6.50;3.53;;;27.30;67.00;;;;;;7401810;19;19911;-73
2023/06/05 12:25:16;;;;;;;;;;;26.80;66.50;;;;;;7396671;19;19936;-74
2023/06/05 12:27:42;;;;;;;5.93;4.00;;;26.10;66.40;;;;;;7401621;19;19923;-73
2023/06/05 12:30:09;;;;;;;6.03;4.00;;;26.60;66.70;;;;;;7402178;19;19951;-75
2023/06/05 12:32:35;;;;;;;5.00;3.30;;;26.70;65.90;;;;;;7379582;19;19990;-74
2023/06/05 12:35:00;;;;;;;5.68;4.40;;;26.10;65.50;;;;;;7401811;19;19953;-75
2023/06/05 12:37:37;;;;;;;7.43;3.65;;;26.60;65.30;;;;;;7400263;19;19922;-75
2023/06/05 12:40:10;;;;;;;6.00;3.58;;;26.20;65.50;;;;;;7378124;19;19922;-74
2023/06/05 12:42:37;;;;;;;6.90;4.88;;;26.80;64.40;;;;;;7400279;19;19944;-75
2023/06/05 12:45:07;;;;;;;6.40;3.90;;;26.90;63.80;;;;;;7400336;19;19922;-73